createdAt,value
2022-10-28T00:02:03.627Z,99.80
2022-10-28T00:06:09.189Z,99.80
2022-10-28T00:10:12.070Z,99.90
2022-10-28T00:14:15.036Z,99.90
2022-10-28T00:18:19.212Z,99.90
2022-10-28T00:22:22.029Z,99.90
2022-10-28T00:26:26.220Z,99.90
2022-10-28T00:34:38.598Z,99.90
2022-10-28T00:38:42.291Z,99.90
2022-10-28T00:42:45.106Z,99.90
2022-10-28T00:46:51.395Z,99.90
2022-10-28T00:50:56.054Z,99.90
2022-10-28T00:55:01.537Z,99.90
2022-10-28T00:59:12.378Z,99.90
2022-10-28T01:03:15.993Z,99.80
2022-10-28T01:07:20.519Z,99.90
2022-10-28T01:11:40.994Z,99.90
2022-10-28T01:15:50.469Z,99.90
2022-10-28T01:20:25.359Z,99.90
2022-10-28T01:24:48.398Z,99.90
2022-10-28T01:29:26.263Z,99.90
2022-10-28T01:33:36.857Z,99.90
2022-10-28T01:37:48.366Z,99.90
2022-10-28T01:41:58.844Z,99.90
2022-10-28T01:46:05.055Z,99.90
2022-10-28T01:50:13.859Z,99.90
2022-10-28T01:54:21.248Z,99.90
2022-10-28T01:58:29.537Z,99.90
2022-10-28T02:02:34.318Z,99.90
2022-10-28T02:06:40.677Z,99.90
2022-10-28T02:10:53.170Z,99.90
2022-10-28T02:15:32.108Z,99.90
2022-10-28T02:19:39.973Z,99.90
2022-10-28T02:23:48.038Z,99.90
2022-10-28T02:27:57.546Z,99.90
2022-10-28T02:32:05.494Z,99.90
2022-10-28T02:36:13.038Z,99.90
2022-10-28T02:40:23.909Z,99.90
2022-10-28T02:44:30.455Z,99.90
2022-10-28T02:48:37.447Z,99.90
2022-10-28T02:52:43.589Z,99.80
2022-10-28T02:56:51.852Z,99.60
2022-10-28T03:00:54.902Z,99.50
2022-10-28T03:04:57.716Z,99.50
2022-10-28T03:09:00.553Z,99.50
2022-10-28T03:13:04.759Z,99.40
2022-10-28T03:17:08.540Z,99.30
2022-10-28T03:21:11.427Z,98.40
2022-10-28T03:25:14.356Z,97.30
2022-10-28T03:29:18.496Z,96.80
2022-10-28T03:33:21.302Z,95.70
2022-10-28T03:37:24.234Z,95.20
2022-10-28T03:41:27.046Z,94.50
2022-10-28T03:45:31.263Z,93.80
2022-10-28T03:49:34.068Z,93.30
2022-10-28T03:53:36.852Z,93.10
2022-10-28T03:57:39.700Z,93.20
2022-10-28T04:01:45.143Z,93.30
2022-10-28T04:05:48.788Z,93.10
2022-10-28T04:09:51.682Z,92.80
2022-10-28T04:13:54.494Z,92.70
2022-10-28T04:17:58.925Z,92.30
2022-10-28T04:22:02.000Z,91.80
2022-10-28T04:26:05.027Z,91.20
2022-10-28T04:30:09.127Z,90.80
2022-10-28T04:34:13.333Z,90.00
2022-10-28T04:38:16.233Z,89.70
2022-10-28T04:42:19.042Z,88.60
2022-10-28T04:46:21.827Z,88.10
2022-10-28T04:50:26.133Z,87.80
2022-10-28T04:54:29.816Z,87.00
2022-10-28T04:58:32.744Z,87.10
2022-10-28T05:02:35.548Z,87.30
2022-10-28T05:06:39.714Z,86.90
2022-10-28T05:10:42.519Z,86.80
2022-10-28T05:14:47.187Z,86.60
2022-10-28T05:18:50.901Z,86.70
2022-10-28T05:22:56.906Z,86.50
2022-10-28T05:27:00.442Z,87.00
2022-10-28T05:31:03.405Z,87.30
2022-10-28T05:35:06.964Z,87.30
2022-10-28T05:39:12.709Z,87.70
2022-10-28T05:43:15.552Z,88.10
2022-10-28T05:47:19.320Z,88.60
2022-10-28T05:51:22.360Z,89.60
2022-10-28T05:55:29.483Z,90.00
2022-10-28T05:59:32.259Z,90.30
2022-10-28T06:03:35.101Z,90.40
2022-10-28T06:07:38.423Z,90.80
2022-10-28T06:11:41.062Z,91.00
2022-10-28T06:15:43.853Z,91.70
2022-10-28T06:19:46.654Z,92.10
2022-10-28T06:23:50.411Z,92.50
2022-10-28T06:27:55.845Z,92.70
2022-10-28T06:31:58.813Z,93.10
2022-10-28T06:36:02.020Z,93.30
2022-10-28T06:40:06.210Z,93.60
2022-10-28T06:44:10.339Z,93.90
2022-10-28T06:48:14.968Z,94.00
2022-10-28T06:52:17.943Z,94.60
2022-10-28T06:56:20.779Z,94.20
2022-10-28T07:00:26.706Z,94.40
2022-10-28T07:04:31.678Z,94.40
2022-10-28T07:08:34.627Z,94.00
2022-10-28T07:12:37.505Z,93.60
2022-10-28T07:16:42.932Z,93.30
2022-10-28T07:20:45.762Z,93.00
2022-10-28T07:24:48.838Z,92.80
2022-10-28T07:28:51.881Z,92.70
2022-10-28T07:32:57.004Z,92.50
2022-10-28T07:37:00.011Z,92.50
2022-10-28T07:41:05.882Z,92.40
2022-10-28T07:45:09.375Z,92.40
2022-10-28T07:49:13.536Z,92.50
2022-10-28T07:53:16.339Z,92.50
2022-10-28T07:57:19.276Z,92.30
2022-10-28T08:01:22.521Z,92.60
2022-10-28T08:05:26.828Z,92.40
2022-10-28T08:09:29.627Z,92.20
2022-10-28T08:13:35.762Z,92.00
2022-10-28T08:17:40.757Z,91.50
2022-10-28T08:21:44.883Z,91.40
2022-10-28T08:25:50.813Z,91.60
2022-10-28T08:29:54.029Z,91.90
2022-10-28T08:33:56.867Z,91.10
2022-10-28T08:38:01.023Z,91.30
2022-10-28T08:42:19.174Z,91.10
2022-10-28T08:46:30.229Z,91.10
2022-10-28T08:50:39.629Z,90.20
2022-10-28T08:54:47.408Z,90.20
2022-10-28T08:58:54.612Z,90.00
2022-10-28T09:03:09.267Z,89.90
2022-10-28T09:07:18.292Z,90.50
2022-10-28T09:11:49.579Z,89.50
2022-10-28T09:16:00.004Z,86.40
2022-10-28T09:20:13.442Z,83.90
2022-10-28T09:24:20.448Z,82.80
2022-10-28T09:28:39.039Z,79.00
2022-10-28T09:32:46.143Z,79.10
2022-10-28T09:36:54.411Z,76.40
2022-10-28T09:41:02.340Z,77.90
2022-10-28T09:45:13.780Z,77.60
2022-10-28T09:49:21.741Z,74.50
2022-10-28T09:53:36.725Z,73.50
2022-10-28T09:57:39.547Z,71.50
2022-10-28T10:01:45.730Z,71.30
2022-10-28T10:05:52.281Z,71.80
2022-10-28T10:09:55.479Z,71.50
2022-10-28T10:14:01.002Z,72.00
2022-10-28T10:18:07.170Z,73.40
2022-10-28T10:22:10.036Z,74.30
2022-10-28T10:26:15.378Z,74.00
2022-10-28T10:30:23.176Z,72.10
2022-10-28T10:34:30.072Z,71.40
2022-10-28T10:38:33.449Z,71.10
2022-10-28T10:42:42.686Z,71.40
2022-10-28T10:47:19.446Z,69.90
2022-10-28T10:51:25.888Z,71.00
2022-10-28T10:55:34.741Z,70.20
2022-10-28T10:59:39.024Z,69.90
2022-10-28T11:03:54.751Z,70.50
2022-10-28T11:08:04.795Z,70.20
2022-10-28T11:12:16.615Z,70.70
2022-10-28T11:16:22.091Z,69.70
2022-10-28T11:20:27.651Z,68.90
2022-10-28T11:24:46.575Z,68.10
2022-10-28T11:29:04.245Z,65.80
2022-10-28T11:33:29.353Z,64.10
2022-10-28T11:37:47.882Z,62.70
2022-10-28T11:42:04.919Z,61.50
2022-10-28T11:46:15.099Z,61.40
2022-10-28T11:50:30.943Z,62.90
2022-10-28T11:54:50.757Z,61.40
2022-10-28T11:59:06.928Z,59.80
2022-10-28T12:03:42.762Z,59.60
2022-10-28T12:08:07.483Z,58.80
2022-10-28T12:12:18.081Z,59.50
2022-10-28T12:16:32.194Z,60.70
2022-10-28T12:20:41.396Z,58.90
2022-10-28T12:24:47.102Z,57.80
2022-10-28T12:28:54.141Z,56.90
2022-10-28T12:33:02.360Z,57.50
2022-10-28T12:37:09.078Z,58.90
2022-10-28T12:41:16.658Z,57.90
2022-10-28T12:45:22.465Z,58.10
2022-10-28T12:49:35.735Z,58.00
2022-10-28T12:53:47.532Z,58.70
2022-10-28T12:57:56.628Z,59.00
2022-10-28T13:02:01.537Z,61.00
2022-10-28T13:06:31.398Z,63.00
2022-10-28T13:10:43.352Z,64.00
2022-10-28T13:19:29.612Z,61.70
2022-10-28T13:23:40.530Z,63.60
2022-10-28T13:27:43.556Z,62.70
2022-10-28T13:31:47.649Z,63.50
2022-10-28T13:35:50.901Z,65.10
2022-10-28T13:39:55.146Z,66.20
2022-10-28T13:44:29.026Z,66.50
2022-10-28T13:48:49.187Z,65.50
2022-10-28T13:53:43.544Z,67.60
2022-10-28T13:57:49.589Z,69.20
2022-10-28T14:02:07.621Z,67.10
2022-10-28T14:06:32.372Z,67.60
2022-10-28T14:10:39.374Z,66.70
2022-10-28T14:15:03.075Z,64.90
2022-10-28T14:19:16.930Z,64.30
2022-10-28T14:23:53.269Z,64.70
2022-10-28T14:27:56.435Z,64.60
2022-10-28T14:32:39.579Z,64.10
2022-10-28T14:36:53.470Z,64.90
2022-10-28T14:41:11.665Z,65.80
2022-10-28T14:45:27.534Z,66.10
2022-10-28T14:49:33.744Z,67.30
2022-10-28T14:53:37.681Z,68.10
2022-10-28T14:57:40.488Z,68.90
2022-10-28T15:01:56.692Z,69.70
2022-10-28T15:06:20.072Z,70.00
2022-10-28T15:10:27.309Z,70.80
2022-10-28T15:14:36.630Z,73.20
2022-10-28T15:18:47.832Z,76.50
2022-10-28T15:22:52.981Z,76.50
2022-10-28T15:26:56.685Z,77.80
2022-10-28T15:30:59.528Z,78.90
2022-10-28T15:35:39.324Z,80.70
2022-10-28T15:39:43.491Z,82.00
2022-10-28T15:43:55.786Z,83.40
2022-10-28T15:48:00.020Z,83.80
2022-10-28T15:52:21.311Z,84.10
2022-10-28T15:56:26.424Z,84.70
2022-10-28T16:00:30.884Z,85.40
2022-10-28T16:04:44.391Z,85.80
2022-10-28T16:08:47.629Z,86.80
2022-10-28T16:12:51.995Z,87.40
2022-10-28T16:16:58.406Z,88.00
2022-10-28T16:21:01.961Z,88.40
2022-10-28T16:25:12.662Z,88.80
2022-10-28T16:29:16.780Z,89.30
2022-10-28T16:33:20.117Z,88.60
2022-10-28T16:37:25.747Z,88.40
2022-10-28T16:41:28.586Z,88.00
2022-10-28T16:45:32.710Z,87.80
2022-10-28T16:49:35.474Z,87.70
2022-10-28T16:53:38.740Z,87.50
2022-10-28T16:57:41.543Z,87.20
2022-10-28T17:01:45.888Z,86.60
2022-10-28T17:05:49.218Z,86.30
2022-10-28T17:09:52.884Z,85.80
2022-10-28T17:13:55.824Z,85.40
2022-10-28T17:17:59.999Z,85.40
2022-10-28T17:22:06.207Z,85.40
2022-10-28T17:26:12.029Z,85.20
2022-10-28T17:30:16.213Z,85.10
2022-10-28T17:34:20.658Z,84.90
2022-10-28T17:38:23.452Z,84.40
2022-10-28T17:42:26.427Z,84.40
2022-10-28T17:46:29.210Z,84.30
2022-10-28T17:50:33.362Z,84.20
2022-10-28T17:54:36.145Z,85.10
2022-10-28T17:58:38.962Z,84.90
2022-10-28T18:02:41.931Z,85.30
2022-10-28T18:06:46.175Z,85.60
2022-10-28T18:10:52.935Z,86.00
2022-10-28T18:14:55.787Z,86.30
2022-10-28T18:19:03.067Z,86.60
2022-10-28T18:23:07.254Z,87.00
2022-10-28T18:27:10.093Z,87.60
2022-10-28T18:31:15.026Z,87.90
2022-10-28T18:35:17.976Z,88.60
2022-10-28T18:39:22.129Z,88.60
2022-10-28T18:43:25.341Z,89.30
2022-10-28T18:47:28.134Z,90.20
2022-10-28T18:51:30.936Z,90.70
2022-10-28T18:55:35.629Z,91.00
2022-10-28T18:59:52.364Z,91.70
2022-10-28T19:04:04.080Z,91.50
2022-10-28T19:08:06.904Z,92.00
2022-10-28T19:12:11.297Z,92.20
2022-10-28T19:16:14.260Z,92.30
2022-10-28T19:20:17.406Z,92.40
2022-10-28T19:24:20.190Z,92.70
2022-10-28T19:28:24.356Z,92.80
2022-10-28T19:32:27.504Z,93.20
2022-10-28T19:36:31.031Z,93.30
2022-10-28T19:40:33.882Z,93.30
2022-10-28T19:44:38.010Z,93.40
2022-10-28T19:48:41.778Z,93.60
2022-10-28T19:52:44.794Z,93.60
2022-10-28T19:56:49.014Z,94.10
2022-10-28T20:29:23.779Z,94.70
2022-10-28T20:33:28.967Z,95.00
2022-10-28T20:37:31.775Z,94.80
2022-10-28T20:41:36.086Z,94.90
2022-10-28T20:45:38.859Z,94.90
2022-10-28T20:49:42.992Z,95.00
2022-10-28T20:53:45.775Z,95.50
2022-10-28T20:57:48.596Z,95.40
2022-10-28T21:01:51.679Z,95.60
2022-10-28T21:05:56.049Z,95.70
2022-10-28T21:09:58.911Z,95.60
2022-10-28T21:14:02.465Z,95.80
2022-10-28T21:18:06.702Z,95.70
2022-10-28T21:22:10.958Z,95.80
2022-10-28T21:26:14.518Z,95.80
2022-10-28T21:30:17.650Z,95.80
2022-10-28T21:34:20.491Z,95.70
2022-10-28T21:38:24.945Z,95.60
2022-10-28T21:42:27.952Z,95.60
2022-10-28T21:46:30.747Z,95.60
2022-10-28T21:50:33.567Z,95.70
2022-10-28T21:54:37.752Z,95.50
2022-10-28T21:58:41.070Z,95.60
2022-10-28T22:02:43.951Z,95.70
2022-10-28T22:10:59.725Z,95.80
2022-10-28T22:15:02.537Z,95.70
2022-10-28T22:19:08.237Z,96.00
2022-10-28T22:23:11.102Z,96.00
2022-10-28T22:27:15.255Z,96.00
2022-10-28T22:31:19.884Z,96.00
2022-10-28T22:35:22.661Z,95.90
2022-10-28T22:39:25.490Z,95.90
2022-10-28T22:43:29.680Z,96.00
2022-10-28T22:47:32.452Z,95.90
2022-10-28T22:51:35.250Z,95.90
2022-10-28T22:55:38.024Z,95.80
2022-10-28T22:59:42.141Z,95.80
2022-10-28T23:03:46.483Z,95.90
2022-10-28T23:07:49.386Z,95.90
2022-10-28T23:11:52.169Z,96.00
2022-10-28T23:15:56.324Z,96.10
2022-10-28T23:19:59.107Z,96.20
2022-10-28T23:24:02.278Z,96.10
2022-10-28T23:28:06.136Z,96.40
2022-10-28T23:32:10.270Z,96.40
2022-10-28T23:36:14.352Z,96.60
2022-10-28T23:40:17.552Z,96.40
2022-10-28T23:44:20.342Z,96.50
2022-10-28T23:48:25.159Z,96.50
2022-10-28T23:52:27.951Z,96.50
2022-10-28T23:56:30.950Z,96.30
